• Join FlightAware (Why Join?)
  • Login
  • US Flag 
06:40PM EDT


 

Airport Tracker/Info


-or-


 

Live Flight TrackerFlight Track Log ✈ UAL148 ✈ 05-May-2013 ✈ KPHX - KIAH

Flight Track Log - Related Links

Times and Time Zones

All times are in EDT time to prevent confusion due to time zone crossing. See the UAL148 flight status page for this flight to view local times or setup timezone preferences in your user account.

Time Position Orientation Groundspeed Altitude Reporting Facility
EDT Latitude Longitude Course Direction KTS MPH feet Rate Location/Type
06:38PM 33.4310 -112.0260 270° West 172 198 1,600  Level FlightAware
06:39PM 33.4270 -112.0540 260° West 190 219 2,600 1,800 Climbing FlightAware
06:39PM 33.4170 -112.0880 251° West 227 261 3,400 2,220 Climbing FlightAware
06:39PM 33.4140 -112.1010 255° West 224 258 4,100 2,820 Climbing FlightAware
06:40PM 33.4030 -112.1380 250° West 247 284 5,300 2,400 Climbing FlightAware
06:40PM 33.3840 -112.1750 238° Southwest 272 313 6,500 2,700 Climbing FlightAware
06:40PM 33.3730 -112.1820 208° Southwest 273 314 7,100 2,880 Climbing FlightAware
06:41PM 33.3580 -112.1840 186° South 280 322 7,700 3,420 Climbing FlightAware
06:41PM 33.3230 -112.1610 151° Southeast 281 323 9,700 3,720 Climbing FlightAware
06:41PM 33.3170 -112.1470 117° Southeast 290 334 10,200 2,580 Climbing FlightAware
06:42PM 33.3080 -112.0740 98° East 315 362 12,100 2,220 Climbing FlightAware
06:43PM 33.3000 -112.0030 98° East 346 398 13,400 2,820 Climbing FlightAware
06:44PM 33.2920 -111.9190 96° East 340 391 16,100 3,240 Climbing FlightAware
06:44PM 33.2860 -111.8410 95° East 347 399 18,000 2,520 Climbing FlightAware
06:45PM 33.2790 -111.7650 96° East 360 414 19,500 2,040 Climbing FlightAware
06:46PM 33.2610 -111.6780 104° East 375 432 20,900 2,100 Climbing FlightAware
06:46PM 33.2430 -111.5930 104° East 381 438 22,500 1,740 Climbing FlightAware
06:47PM 33.2230 -111.5030 105° East 405 466 23,400 1,380 Climbing FlightAware
06:48PM 33.2040 -111.4130 104° East 418 481 24,500 1,560 Climbing FlightAware
06:48PM 33.1860 -111.3270 104° East 430 495 25,500 1,620 Climbing FlightAware
06:49PM 33.1620 -111.2160 104° East 440 506 26,800 1,620 Climbing FlightAware
06:50PM 33.1410 -111.1220 105° East 448 516 27,800 1,500 Climbing FlightAware
06:51PM 33.1170 -111.0100 104° East 455 524 29,000 1,320 Climbing FlightAware
06:51PM 33.0960 -110.9140 105° East 463 533 29,700 1,020 Climbing FlightAware
06:52PM 33.0720 -110.8040 105° East 475 547 30,500 960 Climbing FlightAware
06:53PM 33.0490 -110.7010 105° East 485 558 31,100 900 Climbing FlightAware
06:53PM 33.0260 -110.5950 104° East 496 571 31,700 900 Climbing FlightAware
06:54PM 32.9990 -110.4750 105° East 502 578 32,400 1,020 Climbing FlightAware
06:55PM 32.9790 -110.3860 105° East 505 581 33,100 1,080 Climbing FlightAware
06:56PM 32.9410 -110.2190 105° East 511 588 34,200 1,080 Climbing FlightAware
06:56PM 32.9140 -110.0990 105° East 511 588 35,000 960 Climbing FlightAware
06:57PM 32.8890 -109.9900 105° East 512 589 35,600 900 Climbing FlightAware
06:58PM 32.8610 -109.8660 105° East 511 588 36,300 900 Climbing FlightAware
06:58PM 32.8360 -109.7580 105° East 510 587 36,900 480 Climbing FlightAware
06:59PM 32.8120 -109.6540 105° East 509 586 37,000 60 Climbing FlightAware
07:00PM 32.7830 -109.5280 105° East 507 583 37,000  Level FlightAware
07:01PM 32.7580 -109.4210 105° East 506 582 37,000  Level FlightAware
07:01PM 32.7310 -109.3030 105° East 509 586 37,000  Level FlightAware
07:02PM 32.7050 -109.1930 106° East 509 586 37,000  Level FlightAware
07:03PM 32.6810 -109.0890 105° East 507 583 37,000  Level FlightAware
07:03PM 32.6520 -108.9680 106° East 505 581 37,000  Level FlightAware
07:04PM 32.6260 -108.8570 106° East 506 582 37,000  Level FlightAware
07:05PM 32.6000 -108.7480 106° East 507 583 37,000  Level FlightAware
07:05PM 32.5730 -108.6380 106° East 508 585 37,000  Level FlightAware
07:06PM 32.5490 -108.5360 106° East 508 585 37,000  Level FlightAware
07:07PM 32.5190 -108.4140 106° East 509 586 37,000  Level FlightAware
07:07PM 32.4990 -108.3270 105° East 509 586 37,000  Level FlightAware
07:08PM 32.4740 -108.2120 104° East 509 586 37,000  Level FlightAware
07:09PM 32.4530 -108.1210 105° East 509 586 37,000  Level FlightAware
07:09PM 32.4370 -108.0520 105° East 509 586 37,000  Level FlightAware
07:10PM 32.4170 -107.9600 104° East 509 586 37,000  Level FlightAware
07:11PM 32.3960 -107.8690 105° East 509 586 37,000  Level FlightAware
07:11PM 32.3750 -107.7770 105° East 509 586 37,000  Level FlightAware
07:12PM 32.3590 -107.7080 105° East 509 586 37,000  Level FlightAware
07:13PM 32.3390 -107.6170 105° East 509 586 37,000  Level FlightAware
07:13PM 32.3180 -107.5250 105° East 509 586 37,000  Level FlightAware
07:14PM 32.2330 -107.2600 111° Southeast 511 588 37,000  Level FlightAware
07:15PM 32.2030 -107.1390 106° East 510 587 37,000  Level FlightAware
07:15PM 32.1750 -107.0300 107° East 510 587 37,000  Level FlightAware
07:16PM 32.1450 -106.9100 106° East 511 588 37,000  Level FlightAware
07:17PM 32.1190 -106.8130 108° East 509 586 37,000  Level FlightAware
07:18PM 32.0900 -106.7000 107° East 509 586 37,000  Level FlightAware
07:18PM 32.0590 -106.5790 107° East 511 588 37,000  Level FlightAware
07:19PM 32.0320 -106.4730 107° East 513 590 37,000  Level FlightAware
07:20PM 32.0010 -106.3530 107° East 512 589 37,000  Level FlightAware
07:20PM 31.9730 -106.2470 107° East 513 590 37,000  Level FlightAware
07:21PM 31.9420 -106.1290 107° East 513 590 37,000  Level FlightAware
07:22PM 31.9130 -106.0210 108° East 514 592 37,000  Level FlightAware
07:23PM 31.8770 -105.8830 107° East 514 592 37,000  Level FlightAware
07:23PM 31.8530 -105.7920 107° East 514 592 37,000  Level FlightAware
07:24PM 31.8300 -105.7010 107° East 514 592 37,000  Level FlightAware
07:25PM 31.8060 -105.6100 107° East 514 592 37,000  Level FlightAware
07:25PM 31.7880 -105.5420 107° East 514 592 37,000  Level FlightAware
07:26PM 31.7650 -105.4510 107° East 514 592 37,000  Level FlightAware
07:27PM 31.7350 -105.3380 107° East 514 592 37,000  Level FlightAware
07:27PM 31.7120 -105.2470 107° East 514 592 37,000  Level FlightAware
07:28PM 31.6880 -105.1560 107° East 514 592 37,000  Level FlightAware
07:29PM 31.6640 -105.0650 107° East 514 592 37,000  Level FlightAware
07:29PM 31.6410 -104.9740 107° East 514 592 37,000  Level FlightAware
07:30PM 31.6110 -104.8610 107° East 514 592 37,000  Level FlightAware
07:31PM 31.5870 -104.7700 107° East 514 592 37,000  Level FlightAware
07:32PM 31.5640 -104.6790 107° East 514 592 37,000  Level FlightAware
07:32PM 31.5400 -104.5880 107° East 514 592 37,000  Level FlightAware
07:32PM 31.4542 -104.3622 107° East 513 590 37,000  Level Houston Center
07:33PM 31.4436 -104.2906 100° East 510 587 37,000  Level Albuquerque Center
07:34PM 31.3989 -104.1325 108° East 510 587 37,000  Level Albuquerque Center
07:35PM 31.3547 -103.9753 108° East 509 586 37,000  Level Albuquerque Center
07:36PM 31.3103 -103.8178 108° East 509 586 37,000  Level Albuquerque Center
07:42PM 31.0360 -102.8800 108° East 514 592 37,000  Level FlightAware
07:43PM 30.9960 -102.7420 109° East 514 592 37,000  Level FlightAware
07:43PM 30.9630 -102.6320 109° East 514 592 37,000  Level FlightAware
07:44PM 30.9270 -102.5090 109° East 514 592 37,000  Level FlightAware
07:45PM 30.8960 -102.4050 109° East 513 590 37,000  Level FlightAware
07:45PM 30.8620 -102.2940 110° East 512 589 37,000  Level FlightAware
07:46PM 30.8300 -102.1870 109° East 511 588 37,000  Level FlightAware
07:47PM 30.7990 -102.0810 109° East 510 587 37,000  Level FlightAware
07:48PM 30.7530 -101.9300 109° East 510 587 37,000  Level FlightAware
07:48PM 30.7210 -101.8230 109° East 510 587 37,000  Level FlightAware
07:49PM 30.6930 -101.7330 110° East 510 587 37,000  Level FlightAware
07:50PM 30.6570 -101.6140 109° East 509 586 37,000  Level FlightAware
07:50PM 30.6270 -101.5160 110° East 508 585 37,000  Level FlightAware
07:51PM 30.5940 -101.4090 110° East 509 586 37,000  Level FlightAware
07:52PM 30.5590 -101.2950 110° East 509 586 37,000  Level FlightAware
07:53PM 30.5270 -101.1930 110° East 511 588 37,000  Level FlightAware
07:53PM 30.4910 -101.0760 110° East 512 589 37,000  Level FlightAware
07:54PM 30.4580 -100.9720 110° East 511 588 37,000  Level FlightAware
07:55PM 30.4260 -100.8710 110° East 510 587 37,000  Level FlightAware
07:55PM 30.3900 -100.7550 110° East 518 596 37,000  Level FlightAware
07:56PM 30.3580 -100.6520 110° East 524 603 37,000  Level FlightAware
07:57PM 30.3200 -100.5300 110° East 525 604 37,000  Level FlightAware
07:57PM 30.2880 -100.4290 110° East 526 605 37,000  Level FlightAware
07:58PM 30.2530 -100.3190 110° East 524 603 37,000  Level FlightAware
07:59PM 30.2170 -100.2060 110° East 522 601 37,000  Level FlightAware
08:00PM 30.1820 -100.0980 111° Southeast 523 602 37,000  Level FlightAware
08:00PM 30.1440 -99.9820 111° Southeast 523 602 37,000  Level FlightAware
08:01PM 30.1100 -99.8750 110° East 523 602 37,000  Level FlightAware
08:02PM 30.0760 -99.7700 110° East 525 604 37,000  Level FlightAware
08:02PM 30.0390 -99.6550 110° East 526 605 37,000  Level FlightAware
08:03PM 30.0040 -99.5480 111° Southeast 526 605 37,000  Level FlightAware
08:04PM 29.9650 -99.4280 111° Southeast 526 605 37,000  Level FlightAware
08:04PM 29.9320 -99.3270 111° Southeast 525 604 37,000  Level FlightAware
08:05PM 29.8920 -99.2080 111° Southeast 524 603 37,000  Level FlightAware
08:06PM 29.8580 -99.1040 111° Southeast 523 602 37,000  Level FlightAware
08:07PM 29.8178 -98.9813 111° Southeast 523 602 37,000  Level FlightAware ADS-B
08:07PM 29.7887 -98.8929 111° Southeast 523 602 37,000  Level FlightAware ADS-B
08:08PM 29.7601 -98.8073 111° Southeast 522 601 37,000  Level FlightAware ADS-B
08:09PM 29.7170 -98.6780 111° Southeast 522 601 37,000  Level FlightAware
08:09PM 29.6994 -98.6256 111° Southeast 522 601 37,000  Level FlightAware ADS-B
08:09PM 29.6730 -98.5467 111° Southeast 522 601 37,000  Level FlightAware ADS-B
08:10PM 29.6570 -98.4927 109° East 521 600 37,000  Level FlightAware ADS-B
08:10PM 29.6485 -98.4436 101° East 519 597 37,000  Level FlightAware ADS-B
08:11PM 29.6457 -98.3690 92° East 513 590 37,000  Level FlightAware ADS-B
08:11PM 29.6459 -98.3533 89° East 521 600 37,000  Level FlightAware ADS-B
08:11PM 29.6461 -98.3372 89° East 514 592 37,000  Level FlightAware ADS-B
08:11PM 29.6469 -98.2846 89° East 514 592 37,000  Level FlightAware ADS-B
08:11PM 29.6473 -98.2537 89° East 514 592 37,000  Level FlightAware ADS-B
08:12PM 29.6483 -98.1641 89° East 514 592 37,000  Level FlightAware ADS-B
08:12PM 29.6485 -98.1534 89° East 514 592 37,000  Level FlightAware ADS-B
08:12PM 29.6494 -98.0817 89° East 514 592 37,000  Level FlightAware ADS-B
08:13PM 29.6502 -98.0266 89° East 513 590 37,000  Level FlightAware ADS-B
08:13PM 29.6506 -97.9996 89° East 514 592 37,000  Level FlightAware ADS-B
08:13PM 29.6518 -97.9161 89° East 514 592 37,000  Level FlightAware ADS-B
08:14PM 29.6527 -97.8576 89° East 514 592 37,000  Level FlightAware ADS-B
08:14PM 29.6530 -97.8322 89° East 514 592 37,000 -1,260 Level FlightAware ADS-B
08:14PM 29.6541 -97.7503 89° East 508 585 36,200 -1,560 Descending FlightAware ADS-B
08:14PM 29.6541 -97.7473 90° East 510 587 36,200 -2,640 Level FlightAware ADS-B
08:15PM 29.6550 -97.6691 89° East 509 586 34,900 -2,700 Descending FlightAware ADS-B
08:15PM 29.6551 -97.6572 89° East 510 587 34,700 -3,000 Descending FlightAware ADS-B
08:15PM 29.6559 -97.5833 89° East 512 589 33,300 -3,120 Descending FlightAware ADS-B
08:15PM 29.6560 -97.5673 90° East 512 589 33,000 -2,820 Descending FlightAware ADS-B
08:16PM 29.6565 -97.5012 89° East 510 587 31,900 -2,520 Descending FlightAware ADS-B
08:16PM 29.6566 -97.4829 90° East 513 590 31,700 -2,220 Descending FlightAware ADS-B
08:16PM 29.6573 -97.4139 89° East 502 578 30,700 -2,280 Descending FlightAware ADS-B
08:16PM 29.6575 -97.3979 89° East 501 577 30,500 -2,220 Descending FlightAware ADS-B
08:17PM 29.6582 -97.3339 89° East 495 570 29,600 -2,220 Descending FlightAware ADS-B
08:17PM 29.6584 -97.3179 89° East 494 568 29,400 -2,220 Descending FlightAware ADS-B
08:17PM 29.6588 -97.2558 90° East 486 559 28,500 -2,220 Descending FlightAware ADS-B
08:18PM 29.6594 -97.1777 89° East 477 549 27,400 -2,220 Descending FlightAware ADS-B
08:18PM 29.6599 -97.1014 90° East 469 540 26,300 -2,280 Descending FlightAware ADS-B
08:19PM 29.6601 -97.0513 90° East 464 534 25,500 -2,220 Descending FlightAware ADS-B
08:19PM 29.6600 -97.0461 91° East 464 534 25,500 -1,740 Level FlightAware ADS-B
08:19PM 29.6582 -97.0176 94° East 461 531 25,100 -2,460 Descending FlightAware ADS-B
08:19PM 29.6491 -96.9448 98° East 459 528 23,800 -2,640 Descending FlightAware ADS-B
08:20PM 29.6396 -96.8727 99° East 453 521 22,500 -2,460 Descending FlightAware ADS-B
08:20PM 29.6300 -96.8011 99° East 447 514 21,300 -2,460 Descending FlightAware ADS-B
08:21PM 29.6206 -96.7306 99° East 442 509 20,000 -2,520 Descending FlightAware ADS-B
08:21PM 29.6116 -96.6613 98° East 437 503 18,800 -2,520 Descending FlightAware ADS-B
08:22PM 29.6025 -96.5920 99° East 430 495 17,500 -2,520 Descending FlightAware ADS-B
08:22PM 29.5936 -96.5246 99° East 424 488 16,300 -2,340 Descending FlightAware ADS-B
08:23PM 29.5843 -96.4557 99° East 414 476 15,100 -2,160 Descending FlightAware ADS-B
08:24PM 29.5755 -96.3912 99° East 402 463 14,100 -2,040 Descending FlightAware ADS-B
08:24PM 29.5671 -96.3288 99° East 393 452 13,100 -1,800 Descending FlightAware ADS-B
08:25PM 29.5590 -96.2683 99° East 375 432 12,300 -1,200 Descending FlightAware ADS-B
08:25PM 29.5515 -96.2109 99° East 352 405 11,900 -600 Descending FlightAware ADS-B
08:25PM 29.5496 -96.1935 97° East 336 387 11,900  Level FlightAware ADS-B
08:25PM 29.5497 -96.1803 89° East 324 373 11,900  Level FlightAware ADS-B
08:25PM 29.5506 -96.1715 83° East 317 365 11,900  Level FlightAware ADS-B
08:25PM 29.5522 -96.1625 78° East 313 360 11,900 -780 Level FlightAware ADS-B
08:26PM 29.5535 -96.1572 74° East 309 356 11,800 -1,200 Descending FlightAware ADS-B
08:26PM 29.5565 -96.1474 71° East 304 350 11,700 -1,020 Descending FlightAware ADS-B
08:26PM 29.5599 -96.1394 64° Northeast 301 346 11,600 -1,500 Descending FlightAware ADS-B
08:26PM 29.5810 -96.0979 60° Northeast 295 339 10,800 -1,500 Descending FlightAware ADS-B
08:27PM 29.6018 -96.0565 60° Northeast 290 334 10,100 -1,200 Descending FlightAware ADS-B
08:27PM 29.6120 -96.0361 60° Northeast 289 333 9,900 -420 Descending FlightAware ADS-B
08:27PM 29.6220 -96.0161 60° Northeast 288 331 9,900  Level FlightAware ADS-B
08:28PM 29.6321 -95.9959 60° Northeast 286 329 9,900  Level FlightAware ADS-B
08:28PM 29.6420 -95.9762 60° Northeast 286 329 9,900  Level FlightAware ADS-B
08:28PM 29.6520 -95.9563 60° Northeast 286 329 9,900  Level FlightAware ADS-B
08:28PM 29.6619 -95.9367 60° Northeast 287 330 9,900  Level FlightAware ADS-B
08:29PM 29.6720 -95.9165 60° Northeast 289 333 9,900  Level FlightAware ADS-B
08:29PM 29.6822 -95.8963 60° Northeast 289 333 9,900  Level FlightAware ADS-B
08:29PM 29.6923 -95.8760 60° Northeast 287 330 9,900  Level FlightAware ADS-B
08:29PM 29.7021 -95.8565 60° Northeast 286 329 9,900 -600 Level FlightAware ADS-B
08:30PM 29.7122 -95.8364 60° Northeast 287 330 9,600 -1,200 Descending FlightAware ADS-B
08:30PM 29.7219 -95.8173 60° Northeast 287 330 9,300 -1,200 Descending FlightAware ADS-B
08:30PM 29.7319 -95.7974 60° Northeast 289 333 9,000 -1,140 Descending FlightAware ADS-B
08:30PM 29.7404 -95.7804 60° Northeast 289 333 8,800 -1,140 Descending FlightAware ADS-B
08:30PM 29.7502 -95.7605 60° Northeast 287 330 8,500 -1,200 Descending FlightAware ADS-B
08:31PM 29.7607 -95.7396 60° Northeast 286 329 8,200 -1,140 Descending FlightAware ADS-B
08:31PM 29.7709 -95.7191 60° Northeast 285 328 7,900 -1,200 Descending FlightAware ADS-B
08:31PM 29.7809 -95.6992 60° Northeast 283 326 7,600 -1,320 Descending FlightAware ADS-B
08:32PM 29.7920 -95.6771 60° Northeast 283 326 7,200 -1,320 Descending FlightAware ADS-B
08:32PM 29.8027 -95.6558 60° Northeast 282 325 6,900 -1,260 Descending FlightAware ADS-B
08:32PM 29.8141 -95.6329 60° Northeast 281 323 6,500 -1,140 Descending FlightAware ADS-B
08:32PM 29.8262 -95.6087 60° Northeast 279 321 6,200 -840 Descending FlightAware ADS-B
08:33PM 29.8378 -95.5855 60° Northeast 273 314 6,000 -540 Descending FlightAware ADS-B
08:33PM 29.8495 -95.5618 60° Northeast 270 311 5,900 -180 Descending FlightAware ADS-B
08:33PM 29.8621 -95.5368 60° Northeast 269 310 5,900  Level FlightAware ADS-B
08:34PM 29.8716 -95.5174 61° Northeast 268 308 5,900  Level FlightAware ADS-B
08:34PM 29.8821 -95.4962 60° Northeast 268 308 5,900  Level FlightAware ADS-B
08:34PM 29.8867 -95.4855 64° Northeast 269 310 5,900  Level FlightAware ADS-B
08:34PM 29.8893 -95.4775 69° East 271 312 5,900  Level FlightAware ADS-B
08:34PM 29.8913 -95.4702 72° East 272 313 5,900  Level FlightAware ADS-B
08:34PM 29.8945 -95.4541 77° East 275 316 5,900  Level FlightAware ADS-B
08:35PM 29.8955 -95.4444 83° East 277 319 5,900  Level FlightAware ADS-B
08:35PM 29.8960 -95.4159 89° East 281 323 5,900  Level FlightAware ADS-B
08:35PM 29.8960 -95.3929 90° East 277 319 5,900  Level FlightAware ADS-B
08:36PM 29.8962 -95.3408 90° East 270 311 5,900  Level FlightAware ADS-B
08:36PM 29.8964 -95.3223 89° East 270 311 5,900  Level FlightAware ADS-B
08:36PM 29.8965 -95.2990 90° East 269 310 5,900  Level FlightAware ADS-B
08:36PM 29.8966 -95.2773 90° East 269 310 5,900  Level FlightAware ADS-B
08:37PM 29.8967 -95.2527 90° East 269 310 5,900  Level FlightAware ADS-B
08:37PM 29.8967 -95.2326 90° East 269 310 5,900  Level FlightAware ADS-B
08:37PM 29.8968 -95.2107 90° East 271 312 5,900  Level FlightAware ADS-B
08:37PM 29.8968 -95.1916 90° East 271 312 5,900  Level FlightAware ADS-B
08:38PM 29.8968 -95.1707 90° East 270 311 5,900 -1,020 Level FlightAware ADS-B
08:38PM 29.8969 -95.1483 90° East 271 312 5,400 -2,340 Descending FlightAware ADS-B
08:38PM 29.8970 -95.1256 90° East 281 323 4,700 -2,160 Descending FlightAware ADS-B
08:38PM 29.8973 -95.1030 89° East 278 320 4,300 -1,740 Descending FlightAware ADS-B
08:39PM 29.8976 -95.0936 88° East 277 319 4,100 -2,400 Descending FlightAware ADS-B
08:39PM 29.8983 -95.0876 82° East 275 316 3,900 -2,280 Descending FlightAware ADS-B
08:39PM 29.8993 -95.0830 76° East 274 315 3,800 -900 Descending FlightAware ADS-B
08:39PM 29.9006 -95.0789 70° East 272 313 3,800 -1,020 Level FlightAware ADS-B
08:39PM 29.9023 -95.0749 64° Northeast 268 308 3,700 -1,500 Descending FlightAware ADS-B
08:39PM 29.9056 -95.0691 57° Northeast 264 304 3,600 -780 Descending FlightAware ADS-B
08:39PM 29.9083 -95.0656 48° Northeast 259 298 3,600 -480 Level FlightAware ADS-B
08:39PM 29.9180 -95.0574 36° Northeast 246 283 3,500 -780 Descending FlightAware ADS-B
08:39PM 29.9235 -95.0550 21° North 239 275 3,400 -1,200 Descending FlightAware ADS-B
08:39PM 29.9279 -95.0539 12° North 235 270 3,300 -840 Descending FlightAware ADS-B
08:39PM 29.9395 -95.0521 North 228 262 3,200 -720 Descending FlightAware ADS-B
08:40PM 29.9460 -95.0515 North 222 255 3,100 -600 Descending FlightAware ADS-B
08:40PM 29.9500 -95.0518 356° North 218 251 3,100  Level FlightAware ADS-B
08:40PM 29.9533 -95.0526 348° North 216 249 3,100 -1,020 Level FlightAware ADS-B
08:40PM 29.9561 -95.0538 340° North 212 244 3,000 -900 Descending FlightAware ADS-B
08:40PM 29.9597 -95.0558 334° Northwest 208 239 3,000  Level FlightAware ADS-B
08:40PM 29.9622 -95.0579 324° Northwest 203 234 3,000  Level FlightAware ADS-B
08:40PM 29.9647 -95.0606 317° Northwest 200 230 3,000 -780 Level FlightAware ADS-B
08:40PM 29.9673 -95.0648 306° West 197 227 2,900 -600 Descending FlightAware ADS-B
08:40PM 29.9696 -95.0695 299° West 196 226 2,900  Level FlightAware ADS-B
08:40PM 29.9735 -95.0788 296° West 192 221 2,900 -480 Level FlightAware ADS-B
08:40PM 29.9747 -95.0820 293° West 191 220 2,800 -780 Descending FlightAware ADS-B
08:40PM 29.9759 -95.0856 291° West 192 221 2,800  Level FlightAware ADS-B
08:40PM 29.9766 -95.0887 285° West 193 222 2,800 -600 Level FlightAware ADS-B
08:41PM 29.9782 -95.0967 283° West 194 223 2,700 -600 Descending FlightAware ADS-B
08:41PM 29.9786 -95.1002 278° West 195 224 2,700 -600 Level FlightAware ADS-B
08:41PM 29.9787 -95.1083 271° West 194 223 2,600 -540 Descending FlightAware ADS-B
08:41PM 29.9788 -95.1123 272° West 193 222 2,600  Level FlightAware ADS-B
08:41PM 29.9790 -95.1156 274° West 192 221 2,600 -720 Level FlightAware ADS-B
08:41PM 29.9809 -95.1295 279° West 191 220 2,400 -660 Descending FlightAware ADS-B
08:41PM 29.9831 -95.1449 279° West 193 222 2,300 -480 Descending FlightAware ADS-B
08:42PM 29.9849 -95.1568 280° West 192 221 2,200 -540 Descending FlightAware ADS-B
08:42PM 29.9869 -95.1685 281° West 191 220 2,100 -600 Descending FlightAware ADS-B
08:42PM 29.9903 -95.1896 281° West 177 204 1,900 -420 Descending FlightAware ADS-B
08:42PM 29.9916 -95.1983 280° West 169 194 1,900  Level FlightAware ADS-B
08:43PM 29.9932 -95.2112 278° West 164 189 1,900 -300 Level FlightAware ADS-B
08:43PM 29.9937 -95.2159 277° West 167 192 1,800 -900 Descending FlightAware ADS-B
08:43PM 29.9939 -95.2242 272° West 166 191 1,700 -840 Descending FlightAware ADS-B
08:43PM 29.9938 -95.2289 269° West 162 186 1,600 -900 Descending FlightAware ADS-B
08:43PM 29.9936 -95.2359 268° West 153 176 1,500 -840 Descending FlightAware ADS-B
08:43PM 29.9934 -95.2481 269° West 151 174 1,300 -780 Descending FlightAware ADS-B
08:44PM 29.9932 -95.2606 269° West 152 175 1,100 -840 Descending FlightAware ADS-B
08:44PM 29.9933 -95.2659 271° West 151 174 1,000 -780 Descending FlightAware ADS-B
08:44PM 29.9934 -95.2740 271° West 151 174 900 -720 Descending FlightAware ADS-B
08:44PM 29.9934 -95.2863 270° West 150 173 700 -780 Descending FlightAware ADS-B
08:44PM 29.9934 -95.2985 270° West 150 173 500 -840 Descending FlightAware ADS-B
08:45PM 29.9934 -95.3101 270° West 150 173 300 -840 Descending FlightAware ADS-B
08:45PM 29.9935 -95.3219 271° West 149 171 100  Descending FlightAware ADS-B
08:46PM 29.9928 -95.3508 271° West 156 180 300 180 Climbing Houston Center